Impacts METAR Board
IDs:

KGEG - Spokane Intl, WA, US

Updated at: 0700 UTC 22 Oct 2021
Potential Impact None Slight Moderate High
Time 21/19Z 21/20Z 21/21Z 21/22Z 21/23Z 22/00Z 22/01Z 22/02Z 22/03Z 22/04Z 22/05Z 22/06Z 22/07Z
Temp55 59 60 61 61 60 58 55 55 54 53 53 53
Dewpt42 42 42 43 43 44 43 43 42 42 42 42 42
Altim30.07 30.05 30.02 29.99 29.98 29.98 29.96 29.93 29.92 29.89 29.88 29.85 29.82
VIS10 10 10 10 10 10 10 10 10 10 10 10 10
CIG240 240 240 240 240 240 220 250 250 220 200 100 95
CoverBKNBKNBKNBKNBKNBKNBKNBKNBKNBKNOVCOVCBKN
FltCatVFRVFRVFRVFRVFRVFRVFRVFRVFRVFRVFRVFRVFR
WX-----------------------RA--
WDir70407070706070606060707070
WSpd9 13 11 10 11 8 11 10 10 11 13 11 14
WGst-- -- -- -- -- -- -- -- -- -- -- -- --
Raw hourly METARs
KGEG 211853Z 07009KT 10SM SCT140 BKN240 13/06 A3007 RMK AO2 SLP183 T01280056
KGEG 211953Z 04013KT 10SM SCT140 BKN240 15/06 A3005 RMK AO2 SLP176 T01500056
KGEG 212053Z 07011KT 10SM SCT140 BKN240 16/06 A3002 RMK AO2 SLP165 T01560056 58023
KGEG 212153Z 07010KT 10SM SCT140 BKN240 16/06 A2999 RMK AO2 SLP155 T01610061
KGEG 212253Z 07011KT 10SM SCT150 BKN240 16/06 A2998 RMK AO2 SLP153 T01610061
KGEG 212353Z 06008KT 10SM FEW150 SCT220 BKN240 16/07 A2998 RMK AO2 SLP152 T01560067 10167 20106 56013
KGEG 220053Z 07011KT 10SM SCT150 BKN220 BKN240 14/06 A2996 RMK AO2 SLP144 T01440061
KGEG 220153Z 06010KT 10SM FEW150 BKN250 13/06 A2993 RMK AO2 SLP139 T01280061
KGEG 220253Z 06010KT 10SM SCT150 BKN250 13/06 A2992 RMK AO2 SLP134 T01280056 56019
KGEG 220353Z 06011KT 10SM FEW170 BKN220 12/06 A2989 RMK AO2 SLP125 T01220056
KGEG 220453Z 07013KT 10SM FEW170 OVC200 12/06 A2988 RMK AO2 SLP119 T01170056
KGEG 220553Z 07011KT 10SM -RA FEW060 BKN100 OVC120 12/06 A2985 RMK AO2 RAB38 SLP108 P0000 60000 T01170056 10156 20117 58022
KGEG 220653Z 07014KT 10SM BKN095 12/06 A2982 RMK AO2 RAE11 SLP094 P0000 T01170056



Page loaded:  07:10 UTC  |   12:10 AM Pacific  |   01:10 AM Mountain  |   02:10 AM Central  |   03:10 AM Eastern

 

ADVISORIES

FORECASTS

FORECASTS

OBSERVATIONS

USER TOOLS

ABOUT US